createdAt,value
2019-01-16T00:02:31.241Z,99799.84
2019-01-16T00:06:07.570Z,99794.63
2019-01-16T00:09:46.984Z,99785.70
2019-01-16T00:13:14.033Z,99779.61
2019-01-16T00:16:32.152Z,99778.47
2019-01-16T00:19:47.454Z,99771.38
2019-01-16T00:23:10.524Z,99768.83
2019-01-16T00:26:33.159Z,99772.64
2019-01-16T00:29:57.805Z,99767.27
2019-01-16T00:33:22.503Z,99762.63
2019-01-16T00:36:45.568Z,99767.05
2019-01-16T00:40:27.759Z,99767.20
2019-01-16T00:43:50.697Z,99759.33
2019-01-16T00:47:20.811Z,99765.03
2019-01-16T00:50:57.315Z,99756.36
2019-01-16T00:54:20.128Z,99754.69
2019-01-16T00:57:52.138Z,99754.98
2019-01-16T01:01:04.156Z,99753.34
2019-01-16T01:04:40.583Z,99759.41
2019-01-16T01:08:03.905Z,99753.49
2019-01-16T01:11:30.948Z,99759.13
2019-01-16T01:14:52.366Z,99751.09
2019-01-16T01:18:16.496Z,99759.26
2019-01-16T01:21:39.477Z,99761.27
2019-01-16T01:25:02.294Z,99758.89
2019-01-16T01:28:25.603Z,99766.54
2019-01-16T01:31:58.692Z,99763.34
2019-01-16T01:35:21.662Z,99752.02
2019-01-16T01:38:45.925Z,99754.95
2019-01-16T01:42:08.709Z,99750.00
2019-01-16T01:45:42.576Z,99758.02
2019-01-16T01:48:58.176Z,99747.53
2019-01-16T01:52:25.635Z,99747.38
2019-01-16T01:55:49.853Z,99740.36
2019-01-16T01:59:11.482Z,99743.53
2019-01-16T02:02:35.618Z,99738.66
2019-01-16T02:06:03.960Z,99740.70
2019-01-16T02:09:37.449Z,99739.80
2019-01-16T02:13:01.239Z,99740.58
2019-01-16T02:16:40.531Z,99725.34
2019-01-16T02:20:04.603Z,99733.36
2019-01-16T02:23:40.874Z,99727.34
2019-01-16T02:27:05.897Z,99730.53
2019-01-16T02:30:30.666Z,99725.34
2019-01-16T02:33:53.407Z,99721.73
2019-01-16T02:37:16.261Z,99721.05
2019-01-16T02:40:44.092Z,99715.56
2019-01-16T02:44:08.273Z,99718.20
2019-01-16T02:47:44.880Z,99711.68
2019-01-16T02:51:07.905Z,99707.62
2019-01-16T02:54:35.024Z,99710.05
2019-01-16T02:58:05.071Z,99704.78
2019-01-16T03:01:20.028Z,99702.04
2019-01-16T03:04:47.380Z,99691.98
2019-01-16T03:07:59.142Z,99689.00
2019-01-16T03:11:17.497Z,99687.70
2019-01-16T03:14:40.544Z,99678.31
2019-01-16T03:18:16.791Z,99675.88
2019-01-16T03:21:49.944Z,99669.93
2019-01-16T03:25:24.559Z,99666.66
2019-01-16T03:28:54.463Z,99671.05
2019-01-16T03:32:24.719Z,99662.34
2019-01-16T03:35:51.601Z,99659.67
2019-01-16T03:39:08.274Z,99660.00
2019-01-16T03:42:32.380Z,99655.74
2019-01-16T03:45:56.610Z,99661.56
2019-01-16T03:49:39.256Z,99655.52
2019-01-16T03:53:01.774Z,99656.70
2019-01-16T03:56:25.850Z,99649.44
2019-01-16T03:59:56.075Z,99644.47
2019-01-16T04:03:23.394Z,99639.34
2019-01-16T04:06:41.058Z,99648.12
2019-01-16T04:10:03.477Z,99639.38
2019-01-16T04:13:27.630Z,99640.70
2019-01-16T04:16:54.972Z,99635.44
2019-01-16T04:20:24.939Z,99631.96
2019-01-16T04:23:47.684Z,99631.41
2019-01-16T04:27:14.679Z,99628.59
2019-01-16T04:30:41.577Z,99627.42
2019-01-16T04:34:03.602Z,99623.77
2019-01-16T04:37:43.054Z,99626.85
2019-01-16T04:41:16.457Z,99623.33
2019-01-16T04:44:41.104Z,99619.11
2019-01-16T04:47:53.600Z,99614.86
2019-01-16T04:51:10.096Z,99603.89
2019-01-16T04:54:34.251Z,99596.80
2019-01-16T04:58:05.967Z,99597.17
2019-01-16T05:01:28.637Z,99599.08
2019-01-16T05:05:04.729Z,99588.36
2019-01-16T05:08:34.155Z,99587.39
2019-01-16T05:12:10.650Z,99587.40
2019-01-16T05:15:44.029Z,99586.00
2019-01-16T05:19:23.432Z,99587.33
2019-01-16T05:22:53.501Z,99583.75
2019-01-16T05:26:06.526Z,99582.46
2019-01-16T05:29:32.864Z,99582.48
2019-01-16T05:32:54.186Z,99578.78
2019-01-16T05:36:18.291Z,99582.77
2019-01-16T05:39:41.286Z,99587.44
2019-01-16T05:43:17.840Z,99579.39
2019-01-16T05:46:57.978Z,99578.45
2019-01-16T05:50:28.478Z,99571.42
2019-01-16T05:54:01.492Z,99571.12
2019-01-16T05:57:24.761Z,99579.05
2019-01-16T06:01:07.123Z,99567.94
2019-01-16T06:04:39.796Z,99558.84
2019-01-16T06:08:10.340Z,99569.21
2019-01-16T06:11:33.165Z,99565.05
2019-01-16T06:15:04.521Z,99561.14
2019-01-16T06:18:27.804Z,99552.77
2019-01-16T06:22:03.284Z,99543.92
2019-01-16T06:25:26.112Z,99547.84
2019-01-16T06:28:51.030Z,99548.23
2019-01-16T06:32:20.470Z,99541.93
2019-01-16T06:36:02.854Z,99544.52
2019-01-16T06:39:17.473Z,99546.28
2019-01-16T06:42:40.822Z,99532.99
2019-01-16T06:46:11.208Z,99522.70
2019-01-16T06:49:40.320Z,99526.72
2019-01-16T06:52:54.752Z,99520.41
2019-01-16T06:56:18.919Z,99521.30
2019-01-16T06:59:31.112Z,99520.63
2019-01-16T07:03:10.442Z,99529.41
2019-01-16T07:06:34.663Z,99532.42
2019-01-16T07:10:01.612Z,99531.17
2019-01-16T07:13:31.967Z,99536.71
2019-01-16T07:17:14.461Z,99543.64
2019-01-16T07:20:47.524Z,99535.83
2019-01-16T07:24:14.715Z,99545.41
2019-01-16T07:27:37.859Z,99542.45
2019-01-16T07:31:17.365Z,99544.30
2019-01-16T07:34:38.190Z,99552.18
2019-01-16T07:38:18.263Z,99540.66
2019-01-16T07:41:41.278Z,99543.92
2019-01-16T07:45:05.419Z,99548.66
2019-01-16T07:48:41.955Z,99541.16
2019-01-16T07:51:59.699Z,99546.34
2019-01-16T07:55:16.539Z,99544.58
2019-01-16T07:58:49.733Z,99553.89
2019-01-16T08:02:16.696Z,99552.59
2019-01-16T08:05:39.594Z,99544.83
2019-01-16T08:09:02.551Z,99543.34
2019-01-16T08:12:26.074Z,99546.69
2019-01-16T08:15:42.762Z,99545.59
2019-01-16T08:19:06.947Z,99546.59
2019-01-16T08:22:31.245Z,99548.20
2019-01-16T08:25:45.447Z,99540.05
2019-01-16T08:29:15.543Z,99549.27
2019-01-16T08:32:54.854Z,99555.53
2019-01-16T08:36:25.218Z,99553.52
2019-01-16T08:39:49.473Z,99554.67
2019-01-16T08:43:02.899Z,99555.09
2019-01-16T08:46:27.238Z,99556.19
2019-01-16T08:49:44.938Z,99565.30
2019-01-16T08:53:25.445Z,99560.59
2019-01-16T08:56:49.678Z,99553.89
2019-01-16T09:00:13.884Z,99556.09
2019-01-16T09:03:38.548Z,99549.71
2019-01-16T09:06:56.404Z,99549.34
2019-01-16T09:10:20.535Z,99544.11
2019-01-16T09:13:50.759Z,99538.98
2019-01-16T09:17:21.081Z,99527.71
2019-01-16T09:20:55.265Z,99526.39
2019-01-16T09:24:12.132Z,99522.84
2019-01-16T09:27:42.075Z,99536.02
2019-01-16T09:31:18.680Z,99530.00
2019-01-16T09:34:45.008Z,99524.17
2019-01-16T09:38:11.906Z,99523.19
2019-01-16T09:41:39.227Z,99524.97
2019-01-16T09:45:03.694Z,99526.11
2019-01-16T09:48:27.308Z,99520.59
2019-01-16T09:51:53.532Z,99524.12
2019-01-16T09:55:20.564Z,99520.16
2019-01-16T09:58:43.292Z,99522.25
2019-01-16T10:02:07.257Z,99506.91
2019-01-16T10:05:29.004Z,99510.43
2019-01-16T10:08:54.657Z,99502.66
2019-01-16T10:12:11.827Z,99503.03
2019-01-16T10:15:39.913Z,99502.61
2019-01-16T10:19:19.589Z,99487.64
2019-01-16T10:22:58.877Z,99482.94
2019-01-16T10:26:21.919Z,99475.49
2019-01-16T10:29:42.235Z,99462.42
2019-01-16T10:33:05.248Z,99447.58
2019-01-16T10:36:38.830Z,99446.05
2019-01-16T10:40:01.696Z,99447.84
2019-01-16T10:43:32.121Z,99432.92
2019-01-16T10:46:53.054Z,99435.74
2019-01-16T10:50:29.423Z,99438.27
2019-01-16T10:54:11.807Z,99422.58
2019-01-16T10:57:34.526Z,99409.22
2019-01-16T11:00:57.506Z,99413.25
2019-01-16T11:04:27.852Z,99404.41
2019-01-16T11:07:42.528Z,99408.33
2019-01-16T11:11:21.847Z,99393.28
2019-01-16T11:14:48.857Z,99388.56
2019-01-16T11:18:11.851Z,99387.83
2019-01-16T11:21:35.026Z,99374.30
2019-01-16T11:25:02.201Z,99367.83
2019-01-16T11:28:25.340Z,99364.11
2019-01-16T11:32:08.002Z,99359.63
2019-01-16T11:35:47.333Z,99348.66
2019-01-16T11:39:11.683Z,99346.77
2019-01-16T11:42:28.592Z,99343.58
2019-01-16T11:46:10.725Z,99341.09
2019-01-16T11:49:31.294Z,99345.98
2019-01-16T11:53:12.215Z,99329.80
2019-01-16T11:56:35.548Z,99324.14
2019-01-16T11:59:50.177Z,99328.83
2019-01-16T12:03:20.658Z,99329.08
2019-01-16T12:06:47.664Z,99321.15
2019-01-16T12:10:02.709Z,99318.81
2019-01-16T12:13:25.790Z,99307.02
2019-01-16T12:16:44.851Z,99309.34
2019-01-16T12:20:12.036Z,99305.73
2019-01-16T12:23:35.155Z,99304.12
2019-01-16T12:27:02.467Z,99298.56
2019-01-16T12:30:43.075Z,99288.27
2019-01-16T12:33:58.686Z,99270.19
2019-01-16T12:37:15.408Z,99260.68
2019-01-16T12:40:45.652Z,99267.45
2019-01-16T12:44:06.038Z,99266.39
2019-01-16T12:47:29.106Z,99243.09
2019-01-16T12:50:52.353Z,99247.13
2019-01-16T12:54:22.556Z,99230.55
2019-01-16T12:57:45.408Z,99217.69
2019-01-16T13:01:24.667Z,99213.89
2019-01-16T13:04:47.771Z,99207.61
2019-01-16T13:08:14.977Z,99200.02
2019-01-16T13:11:40.347Z,99193.84
2019-01-16T13:14:59.178Z,99193.63
2019-01-16T13:18:16.834Z,99185.73
2019-01-16T13:21:46.912Z,99179.53
2019-01-16T13:25:11.078Z,99181.30
2019-01-16T13:28:35.063Z,99176.88
2019-01-16T13:32:05.166Z,99167.30
2019-01-16T13:35:35.297Z,99165.94
2019-01-16T13:38:48.406Z,99163.98
2019-01-16T13:42:18.585Z,99158.00
2019-01-16T13:45:50.322Z,99166.96
2019-01-16T13:49:27.000Z,99162.04
2019-01-16T13:52:49.751Z,99159.44
2019-01-16T13:56:13.858Z,99159.67
2019-01-16T13:59:41.085Z,99153.27
2019-01-16T14:03:11.540Z,99152.34
2019-01-16T14:06:34.550Z,99146.27
2019-01-16T14:09:57.274Z,99147.09
2019-01-16T14:13:36.787Z,99135.95
2019-01-16T14:17:10.382Z,99141.09
2019-01-16T14:20:44.699Z,99141.42
2019-01-16T14:24:18.635Z,99134.00
2019-01-16T14:27:52.136Z,99137.59
2019-01-16T14:31:11.016Z,99136.15
2019-01-16T14:34:44.510Z,99130.69
2019-01-16T14:38:07.744Z,99127.91
2019-01-16T14:41:35.043Z,99125.15
2019-01-16T14:45:02.392Z,99124.20
2019-01-16T14:48:19.308Z,99117.00
2019-01-16T14:51:42.197Z,99107.94
2019-01-16T14:55:15.735Z,99105.95
2019-01-16T14:58:48.893Z,99104.80
2019-01-16T15:02:12.075Z,99094.34
2019-01-16T15:05:43.174Z,99089.77
2019-01-16T15:09:07.328Z,99075.16
2019-01-16T15:12:41.484Z,99076.27
2019-01-16T15:16:04.530Z,99070.48
2019-01-16T15:19:27.381Z,99075.34
2019-01-16T15:22:54.281Z,99068.04
2019-01-16T15:26:21.511Z,99066.88
2019-01-16T15:30:04.236Z,99067.55
2019-01-16T15:33:43.675Z,99064.35
2019-01-16T15:37:08.655Z,99049.89
2019-01-16T15:40:33.384Z,99044.70
2019-01-16T15:43:56.370Z,99045.97
2019-01-16T15:47:21.638Z,99039.92
2019-01-16T15:50:48.068Z,99035.10
2019-01-16T15:54:04.983Z,99027.64
2019-01-16T15:57:28.991Z,99026.52
2019-01-16T16:00:42.158Z,99015.34
2019-01-16T16:04:04.570Z,99018.73
2019-01-16T16:07:37.235Z,99015.01
2019-01-16T16:11:10.519Z,99007.39
2019-01-16T16:14:35.659Z,99000.05
2019-01-16T16:17:58.651Z,98993.03
2019-01-16T16:21:21.470Z,99001.29
2019-01-16T16:24:48.648Z,98997.44
2019-01-16T16:28:11.673Z,98990.20
2019-01-16T16:31:54.236Z,98989.31
2019-01-16T16:35:31.007Z,98992.72
2019-01-16T16:38:55.214Z,98991.08
2019-01-16T16:42:31.820Z,98982.75
2019-01-16T16:45:54.488Z,98987.45
2019-01-16T16:49:06.398Z,98980.52
2019-01-16T16:52:29.227Z,98968.67
2019-01-16T16:55:47.934Z,98977.63
2019-01-16T16:59:07.735Z,98964.34
2019-01-16T17:02:31.969Z,98964.39
2019-01-16T17:05:55.100Z,98957.50
2019-01-16T17:09:25.121Z,98953.20
2019-01-16T17:12:58.352Z,98947.31
2019-01-16T17:16:41.028Z,98944.70
2019-01-16T17:20:05.015Z,98945.16
2019-01-16T17:23:38.458Z,98937.42
2019-01-16T17:26:52.220Z,98937.20
2019-01-16T17:30:05.970Z,98938.31
2019-01-16T17:33:33.172Z,98940.36
2019-01-16T17:37:03.433Z,98942.88
2019-01-16T17:40:30.874Z,98933.15
2019-01-16T17:43:53.721Z,98925.30
2019-01-16T17:47:16.549Z,98924.68
2019-01-16T17:50:49.868Z,98916.38
2019-01-16T17:54:17.942Z,98917.34
2019-01-16T17:57:52.038Z,98912.60
2019-01-16T18:01:04.187Z,98911.94
2019-01-16T18:04:26.012Z,98906.32
2019-01-16T18:07:45.757Z,98894.13
2019-01-16T18:11:09.860Z,98890.16
2019-01-16T18:14:43.237Z,98905.09
2019-01-16T18:18:06.052Z,98904.16
2019-01-16T18:21:22.366Z,98904.23
2019-01-16T18:24:52.444Z,98897.71
2019-01-16T18:28:11.879Z,98901.82
2019-01-16T18:31:41.738Z,98905.18
2019-01-16T18:35:02.750Z,98906.46
2019-01-16T18:38:29.604Z,98893.41
2019-01-16T18:42:06.337Z,98894.92
2019-01-16T18:45:42.559Z,98891.25
2019-01-16T18:49:06.680Z,98883.30
2019-01-16T18:52:29.336Z,98881.50
2019-01-16T18:55:50.530Z,98880.33
2019-01-16T18:59:13.329Z,98868.76
2019-01-16T19:02:37.463Z,98867.08
2019-01-16T19:06:02.781Z,98857.70
2019-01-16T19:09:28.402Z,98855.76
2019-01-16T19:12:52.568Z,98851.33
2019-01-16T19:16:20.522Z,98851.52
2019-01-16T19:19:43.650Z,98844.54
2019-01-16T19:23:06.420Z,98831.99
2019-01-16T19:26:30.618Z,98845.80
2019-01-16T19:29:53.301Z,98836.20
2019-01-16T19:33:17.468Z,98847.31
2019-01-16T19:36:40.574Z,98836.86
2019-01-16T19:40:04.706Z,98832.53
2019-01-16T19:43:37.976Z,98833.86
2019-01-16T19:46:56.534Z,98844.20
2019-01-16T19:50:34.106Z,98840.88
2019-01-16T19:54:16.484Z,98850.86
2019-01-16T19:57:31.429Z,98841.73
2019-01-16T20:01:04.466Z,98846.09
2019-01-16T20:04:26.793Z,98848.77
2019-01-16T20:07:53.814Z,98846.78
2019-01-16T20:11:24.133Z,98848.77
2019-01-16T20:14:37.999Z,98853.09
2019-01-16T20:18:04.003Z,98860.05
2019-01-16T20:21:26.994Z,98849.30
2019-01-16T20:24:49.726Z,98844.50
2019-01-16T20:28:12.718Z,98835.90
2019-01-16T20:31:28.473Z,98836.56
2019-01-16T20:34:50.059Z,98831.12
2019-01-16T20:38:32.486Z,98829.17
2019-01-16T20:41:55.596Z,98824.85
2019-01-16T20:45:17.399Z,98814.02
2019-01-16T20:48:46.652Z,98803.98
2019-01-16T20:52:20.011Z,98805.41
2019-01-16T20:55:37.543Z,98802.13
2019-01-16T20:59:06.341Z,98807.08
2019-01-16T21:02:45.884Z,98799.85
2019-01-16T21:06:13.043Z,98795.03
2019-01-16T21:09:37.223Z,98794.88
2019-01-16T21:13:01.273Z,98797.14
2019-01-16T21:16:34.392Z,98792.19
2019-01-16T21:19:57.494Z,98786.58
2019-01-16T21:23:15.372Z,98786.45
2019-01-16T21:26:42.473Z,98781.00
2019-01-16T21:30:09.731Z,98780.84
2019-01-16T21:33:45.734Z,98779.35
2019-01-16T21:37:09.061Z,98762.48
2019-01-16T21:40:32.433Z,98762.48
2019-01-16T21:44:14.784Z,98750.36
2019-01-16T21:47:36.566Z,98752.22
2019-01-16T21:51:07.074Z,98758.48
2019-01-16T21:54:29.806Z,98745.44
2019-01-16T21:57:49.054Z,98748.17
2019-01-16T22:01:07.598Z,98737.27
2019-01-16T22:04:30.569Z,98747.05
2019-01-16T22:08:13.306Z,98738.66
2019-01-16T22:11:35.630Z,98742.25
2019-01-16T22:15:18.019Z,98724.69
2019-01-16T22:18:45.183Z,98725.16
2019-01-16T22:22:15.154Z,98719.00
2019-01-16T22:25:39.224Z,98698.03
2019-01-16T22:29:12.300Z,98702.20
2019-01-16T22:32:32.039Z,98704.86
2019-01-16T22:36:02.716Z,98687.59
2019-01-16T22:39:36.481Z,98695.67
2019-01-16T22:42:52.422Z,98696.36
2019-01-16T22:46:16.504Z,98695.83
2019-01-16T22:49:49.476Z,98696.20
2019-01-16T22:53:15.209Z,98684.20
2019-01-16T22:56:51.273Z,98679.89
2019-01-16T23:00:14.631Z,98659.70
2019-01-16T23:03:49.529Z,98639.63
2019-01-16T23:07:08.980Z,98644.66
2019-01-16T23:10:36.003Z,98639.20
2019-01-16T23:14:00.043Z,98638.38
2019-01-16T23:17:24.238Z,98641.64
2019-01-16T23:21:00.457Z,98632.32
2019-01-16T23:24:17.122Z,98629.70
2019-01-16T23:27:55.879Z,98615.22
2019-01-16T23:31:09.107Z,98612.80
2019-01-16T23:34:45.494Z,98622.11
2019-01-16T23:38:27.706Z,98618.33
2019-01-16T23:41:58.068Z,98606.34
2019-01-16T23:45:34.301Z,98600.09
2019-01-16T23:49:10.388Z,98604.34
2019-01-16T23:52:40.764Z,98607.46
2019-01-16T23:56:07.900Z,98600.84
2019-01-16T23:59:50.156Z,98593.25
